createdAt,value
2022-11-16T00:00:00.303Z,98372.08
2022-11-16T00:02:52.945Z,98367.60
2022-11-16T00:05:25.513Z,98363.80
2022-11-16T00:07:56.622Z,98357.62
2022-11-16T00:10:24.967Z,98354.45
2022-11-16T00:12:53.170Z,98354.31
2022-11-16T00:15:21.494Z,98351.83
2022-11-16T00:17:49.740Z,98345.82
2022-11-16T00:20:17.896Z,98340.96
2022-11-16T00:22:46.118Z,98342.10
2022-11-16T00:25:14.496Z,98346.43
2022-11-16T00:27:42.676Z,98348.63
2022-11-16T00:30:11.250Z,98342.33
2022-11-16T00:32:39.516Z,98337.98
2022-11-16T00:35:08.360Z,98334.23
2022-11-16T00:37:36.574Z,98336.27
2022-11-16T00:40:05.373Z,98341.45
2022-11-16T00:42:33.780Z,98340.29
2022-11-16T00:45:01.927Z,98336.52
2022-11-16T00:47:30.153Z,98339.06
2022-11-16T00:49:58.414Z,98338.96
2022-11-16T00:52:26.629Z,98339.98
2022-11-16T00:54:56.090Z,98340.23
2022-11-16T00:57:24.499Z,98339.33
2022-11-16T00:59:52.709Z,98339.05
2022-11-16T01:02:21.653Z,98340.34
2022-11-16T01:04:49.847Z,98339.42
2022-11-16T01:07:18.037Z,98338.16
2022-11-16T01:09:46.287Z,98334.25
2022-11-16T01:12:14.504Z,98330.77
2022-11-16T01:14:44.838Z,98329.79
2022-11-16T01:17:14.811Z,98329.14
2022-11-16T01:19:43.187Z,98328.63
2022-11-16T01:22:11.436Z,98325.09
2022-11-16T01:24:39.791Z,98321.83
2022-11-16T01:27:08.060Z,98317.60
2022-11-16T01:29:38.787Z,98310.77
2022-11-16T01:32:07.076Z,98307.58
2022-11-16T01:34:36.135Z,98304.21
2022-11-16T01:37:11.207Z,98303.69
2022-11-16T01:39:41.496Z,98308.22
2022-11-16T01:42:25.813Z,98307.77
2022-11-16T01:45:18.920Z,98297.95
2022-11-16T01:47:48.871Z,98290.28
2022-11-16T01:50:21.221Z,98289.08
2022-11-16T01:53:00.094Z,98292.14
2022-11-16T01:55:35.517Z,98290.21
2022-11-16T01:58:23.827Z,98287.98
2022-11-16T02:01:00.222Z,98280.89
2022-11-16T02:03:44.815Z,98272.48
2022-11-16T02:06:28.362Z,98267.31
2022-11-16T02:09:48.191Z,98262.35
2022-11-16T02:12:39.468Z,98258.02
2022-11-16T02:15:25.450Z,98251.46
2022-11-16T02:18:37.365Z,98257.43
2022-11-16T02:21:16.787Z,98257.17
2022-11-16T02:23:51.239Z,98253.76
2022-11-16T02:26:31.734Z,98248.73
2022-11-16T02:29:18.296Z,98247.27
2022-11-16T02:31:52.911Z,98242.36
2022-11-16T02:34:24.065Z,98238.67
2022-11-16T02:36:55.265Z,98238.70
2022-11-16T02:39:27.429Z,98234.55
2022-11-16T02:41:59.009Z,98231.82
2022-11-16T02:44:37.236Z,98231.77
2022-11-16T02:47:09.522Z,98224.83
2022-11-16T02:49:42.562Z,98220.46
2022-11-16T02:52:12.453Z,98217.23
2022-11-16T02:54:40.824Z,98218.28
2022-11-16T02:57:08.906Z,98220.66
2022-11-16T02:59:42.166Z,98220.86
2022-11-16T03:02:49.786Z,98221.20
2022-11-16T03:05:48.203Z,98214.90
2022-11-16T03:08:25.060Z,98206.75
2022-11-16T03:11:17.084Z,98198.66
2022-11-16T03:13:47.384Z,98194.00
2022-11-16T03:16:36.371Z,98199.81
2022-11-16T03:19:10.459Z,98198.48
2022-11-16T03:21:59.551Z,98194.27
2022-11-16T03:24:28.137Z,98195.98
2022-11-16T03:27:12.556Z,98194.83
2022-11-16T03:29:53.850Z,98193.95
2022-11-16T03:32:29.019Z,98193.67
2022-11-16T03:35:06.715Z,98190.91
2022-11-16T03:37:36.971Z,98188.16
2022-11-16T03:40:07.607Z,98189.86
2022-11-16T03:42:36.610Z,98189.19
2022-11-16T03:45:05.578Z,98193.76
2022-11-16T03:47:34.767Z,98198.70
2022-11-16T03:50:05.200Z,98195.92
2022-11-16T03:52:35.088Z,98193.58
2022-11-16T03:55:05.114Z,98191.27
2022-11-16T03:57:35.290Z,98188.87
2022-11-16T04:00:06.358Z,98184.88
2022-11-16T04:02:41.498Z,98182.14
2022-11-16T04:05:29.269Z,98182.02
2022-11-16T04:08:16.072Z,98181.86
2022-11-16T04:11:03.283Z,98179.14
2022-11-16T04:13:53.088Z,98173.21
2022-11-16T04:16:39.902Z,98166.11
2022-11-16T04:19:28.162Z,98164.66
2022-11-16T04:22:19.243Z,98165.64
2022-11-16T04:24:54.805Z,98161.38
2022-11-16T04:27:50.035Z,98160.48
2022-11-16T04:30:19.790Z,98156.79
2022-11-16T04:33:07.263Z,98151.59
2022-11-16T04:35:54.083Z,98153.80
2022-11-16T04:38:22.243Z,98154.48
2022-11-16T04:40:50.478Z,98149.24
2022-11-16T04:43:18.702Z,98144.02
2022-11-16T04:46:05.860Z,98142.45
2022-11-16T04:48:38.051Z,98145.70
2022-11-16T04:51:06.379Z,98149.05
2022-11-16T04:53:34.957Z,98145.40
2022-11-16T04:56:09.088Z,98142.30
2022-11-16T04:58:37.235Z,98139.53
2022-11-16T05:01:05.368Z,98139.41
2022-11-16T05:03:34.437Z,98139.30
2022-11-16T05:06:02.635Z,98142.25
2022-11-16T05:08:31.368Z,98137.34
2022-11-16T05:11:00.181Z,98137.63
2022-11-16T05:13:28.658Z,98138.40
2022-11-16T05:15:56.842Z,98135.61
2022-11-16T05:18:25.046Z,98132.77
2022-11-16T05:21:02.462Z,98132.71
2022-11-16T05:23:53.058Z,98133.71
2022-11-16T05:26:22.406Z,98133.20
2022-11-16T05:28:50.911Z,98132.84
2022-11-16T05:31:19.331Z,98131.13
2022-11-16T05:33:48.650Z,98125.10
2022-11-16T05:36:17.180Z,98127.64
2022-11-16T05:38:45.509Z,98124.05
2022-11-16T05:41:13.685Z,98121.13
2022-11-16T05:43:42.060Z,98118.27
2022-11-16T05:46:15.159Z,98113.79
2022-11-16T05:48:43.333Z,98111.24
2022-11-16T05:51:11.557Z,98109.21
2022-11-16T05:53:39.906Z,98109.17
2022-11-16T05:56:08.687Z,98112.70
2022-11-16T05:58:39.036Z,98113.66
2022-11-16T06:01:07.408Z,98113.80
2022-11-16T06:03:36.467Z,98117.11
2022-11-16T06:06:05.448Z,98115.80
2022-11-16T06:08:33.993Z,98116.51
2022-11-16T06:11:06.303Z,98113.77
2022-11-16T06:13:36.110Z,98113.98
2022-11-16T06:16:05.533Z,98115.66
2022-11-16T06:18:38.808Z,98117.92
2022-11-16T06:21:08.873Z,98114.74
2022-11-16T06:23:37.353Z,98112.48
2022-11-16T06:26:06.890Z,98107.16
2022-11-16T06:28:36.630Z,98102.72
2022-11-16T06:31:05.244Z,98099.01
2022-11-16T06:33:36.448Z,98100.57
2022-11-16T06:36:06.992Z,98101.80
2022-11-16T06:38:35.263Z,98101.51
2022-11-16T06:41:03.847Z,98098.67
2022-11-16T06:43:33.094Z,98095.94
2022-11-16T06:46:01.304Z,98096.96
2022-11-16T06:48:30.513Z,98092.34
2022-11-16T06:50:59.855Z,98092.63
2022-11-16T06:53:29.593Z,98090.80
2022-11-16T06:56:06.691Z,98087.71
2022-11-16T06:58:41.684Z,98088.90
2022-11-16T07:01:12.350Z,98088.81
2022-11-16T07:03:41.872Z,98090.06
2022-11-16T07:06:12.231Z,98086.50
2022-11-16T07:08:41.603Z,98084.27
2022-11-16T07:11:10.673Z,98082.84
2022-11-16T07:13:39.155Z,98082.78
2022-11-16T07:16:10.151Z,98083.10
2022-11-16T07:18:41.394Z,98084.15
2022-11-16T07:21:13.147Z,98080.80
2022-11-16T07:23:42.065Z,98077.73
2022-11-16T07:26:11.859Z,98072.17
2022-11-16T07:28:48.179Z,98068.48
2022-11-16T07:31:18.962Z,98067.29
2022-11-16T07:33:47.596Z,98071.88
2022-11-16T07:36:18.615Z,98068.27
2022-11-16T07:38:47.122Z,98067.81
2022-11-16T07:41:19.981Z,98072.70
2022-11-16T07:44:20.944Z,98074.04
2022-11-16T07:47:01.872Z,98076.39
2022-11-16T07:49:30.876Z,98075.66
2022-11-16T07:52:03.816Z,98074.98
2022-11-16T07:54:40.660Z,98076.14
2022-11-16T07:57:09.341Z,98078.00
2022-11-16T07:59:37.501Z,98077.20
2022-11-16T08:02:06.082Z,98080.58
2022-11-16T08:04:34.364Z,98077.19
2022-11-16T08:07:02.578Z,98080.50
2022-11-16T08:09:34.861Z,98079.62
2022-11-16T08:12:03.322Z,98081.95
2022-11-16T08:14:32.288Z,98080.42
2022-11-16T08:17:00.369Z,98085.29
2022-11-16T08:19:29.183Z,98084.61
2022-11-16T08:21:57.660Z,98082.41
2022-11-16T08:24:28.155Z,98079.53
2022-11-16T08:26:58.755Z,98079.45
2022-11-16T08:29:27.111Z,98081.66
2022-11-16T08:31:55.564Z,98079.41
2022-11-16T08:34:23.908Z,98082.44
2022-11-16T08:36:54.111Z,98086.31
2022-11-16T08:39:26.865Z,98089.86
2022-11-16T08:41:55.100Z,98088.00
2022-11-16T08:44:23.276Z,98089.68
2022-11-16T08:46:53.822Z,98087.09
2022-11-16T08:49:31.316Z,98087.23
2022-11-16T08:51:59.692Z,98084.61
2022-11-16T08:54:31.357Z,98081.21
2022-11-16T08:56:59.562Z,98081.00
2022-11-16T08:59:29.176Z,98079.44
2022-11-16T09:02:00.794Z,98080.20
2022-11-16T09:04:34.100Z,98082.09
2022-11-16T09:07:05.011Z,98079.41
2022-11-16T09:09:33.267Z,98081.98
2022-11-16T09:12:01.407Z,98079.59
2022-11-16T09:14:30.675Z,98082.11
2022-11-16T09:16:58.798Z,98079.55
2022-11-16T09:19:26.974Z,98075.86
2022-11-16T09:21:55.728Z,98070.59
2022-11-16T09:24:23.834Z,98071.05
2022-11-16T09:26:51.961Z,98066.75
2022-11-16T09:29:20.083Z,98066.92
2022-11-16T09:31:48.306Z,98061.58
2022-11-16T09:34:16.423Z,98064.70
2022-11-16T09:36:44.610Z,98064.92
2022-11-16T09:39:29.967Z,98064.52
2022-11-16T09:42:21.993Z,98065.63
2022-11-16T09:45:16.361Z,98061.34
2022-11-16T09:47:50.192Z,98052.68
2022-11-16T09:50:43.778Z,98045.40
2022-11-16T09:53:25.892Z,98043.10
2022-11-16T09:55:58.552Z,98040.95
2022-11-16T09:58:39.880Z,98031.55
2022-11-16T10:01:21.138Z,98032.20
2022-11-16T10:03:53.988Z,98027.39
2022-11-16T10:06:37.112Z,98021.09
2022-11-16T10:09:05.651Z,98021.17
2022-11-16T10:11:47.187Z,98014.52
2022-11-16T10:14:41.789Z,98008.04
2022-11-16T10:17:46.959Z,98005.21
2022-11-16T10:20:31.121Z,97997.60
2022-11-16T10:23:14.775Z,97990.79
2022-11-16T10:25:45.164Z,97988.06
2022-11-16T10:28:34.675Z,97984.20
2022-11-16T10:31:21.135Z,97985.00
2022-11-16T10:33:54.148Z,97986.10
2022-11-16T10:36:27.486Z,97983.97
2022-11-16T10:38:57.327Z,97980.11
2022-11-16T10:41:31.417Z,97977.61
2022-11-16T10:43:59.761Z,97976.77
2022-11-16T10:46:42.176Z,97977.21
2022-11-16T10:49:22.800Z,97973.70
2022-11-16T10:51:51.046Z,97975.60
2022-11-16T10:54:19.197Z,97971.52
2022-11-16T10:56:49.702Z,97971.05
2022-11-16T10:59:21.332Z,97970.08
2022-11-16T11:01:53.208Z,97969.55
2022-11-16T11:04:26.859Z,97967.95
2022-11-16T11:06:58.189Z,97968.94
2022-11-16T11:09:35.287Z,97963.04
2022-11-16T11:12:32.605Z,97959.36
2022-11-16T11:15:25.798Z,97962.38
2022-11-16T11:18:23.788Z,97962.54
2022-11-16T11:20:57.939Z,97962.27
2022-11-16T11:23:27.597Z,97962.32
2022-11-16T11:25:58.542Z,97959.61
2022-11-16T11:28:30.060Z,97958.14
2022-11-16T11:31:05.873Z,97954.27
2022-11-16T11:33:38.278Z,97952.73
2022-11-16T11:36:14.752Z,97949.41
2022-11-16T11:39:13.155Z,97946.30
2022-11-16T11:41:44.995Z,97943.10
2022-11-16T11:44:13.024Z,97945.39
2022-11-16T11:47:42.198Z,97945.70
2022-11-16T11:49:50.093Z,97945.81
2022-11-16T11:52:31.440Z,97944.77
2022-11-16T11:55:02.715Z,97945.55
2022-11-16T11:57:34.944Z,97946.14
2022-11-16T12:00:05.930Z,97946.98
2022-11-16T12:03:07.721Z,97944.74
2022-11-16T12:06:30.887Z,97941.06
2022-11-16T12:09:04.719Z,97944.48
2022-11-16T12:11:41.718Z,97947.38
2022-11-16T12:14:41.090Z,97946.30
2022-11-16T12:17:37.019Z,97944.23
2022-11-16T12:20:16.659Z,97945.54
2022-11-16T12:22:50.961Z,97942.85
2022-11-16T12:25:37.376Z,97940.98
2022-11-16T12:28:11.370Z,97941.52
2022-11-16T12:31:02.274Z,97944.27
2022-11-16T12:33:56.426Z,97945.98
2022-11-16T12:36:44.536Z,97940.86
2022-11-16T12:39:35.332Z,97938.87
2022-11-16T12:42:40.826Z,97941.23
2022-11-16T12:45:18.479Z,97942.45
2022-11-16T12:47:52.343Z,97942.38
2022-11-16T12:50:44.898Z,97943.30
2022-11-16T12:53:26.604Z,97943.42
2022-11-16T12:56:10.438Z,97944.21
2022-11-16T12:58:57.140Z,97945.39
2022-11-16T13:01:36.442Z,97937.98
2022-11-16T13:04:15.556Z,97933.77
2022-11-16T13:06:52.457Z,97931.67
2022-11-16T13:09:26.149Z,97933.59
2022-11-16T13:12:06.679Z,97932.89
2022-11-16T13:14:40.802Z,97933.22
2022-11-16T13:17:19.115Z,97934.30
2022-11-16T13:20:15.101Z,97937.02
2022-11-16T13:23:18.720Z,97939.05
2022-11-16T13:25:56.608Z,97935.73
2022-11-16T13:28:33.980Z,97933.41
2022-11-16T13:31:10.748Z,97933.16
2022-11-16T13:33:51.240Z,97932.78
2022-11-16T13:36:31.774Z,97934.79
2022-11-16T13:38:59.912Z,97932.48
2022-11-16T13:41:31.767Z,97930.95
2022-11-16T13:44:01.473Z,97926.40
2022-11-16T13:46:56.261Z,97927.98
2022-11-16T13:49:37.942Z,97920.73
2022-11-16T13:52:23.295Z,97920.41
2022-11-16T13:54:55.444Z,97921.97
2022-11-16T13:57:26.188Z,97917.78
2022-11-16T14:00:00.363Z,97913.42
2022-11-16T14:02:37.324Z,97910.48
2022-11-16T14:05:24.250Z,97913.11
2022-11-16T14:07:52.351Z,97915.14
2022-11-16T14:10:35.910Z,97918.33
2022-11-16T14:13:06.317Z,97912.80
2022-11-16T14:15:36.986Z,97914.33
2022-11-16T14:18:08.662Z,97908.61
2022-11-16T14:20:54.134Z,97906.73
2022-11-16T14:23:28.287Z,97904.84
2022-11-16T14:26:02.504Z,97901.50
2022-11-16T14:28:55.811Z,97904.81
2022-11-16T14:31:47.212Z,97904.02
2022-11-16T14:34:22.431Z,97908.95
2022-11-16T14:36:51.555Z,97904.67
2022-11-16T14:39:38.614Z,97904.00
2022-11-16T14:42:19.779Z,97900.50
2022-11-16T14:44:49.694Z,97901.21
2022-11-16T14:47:23.603Z,97903.35
2022-11-16T14:49:52.704Z,97901.46
2022-11-16T14:52:26.469Z,97902.82
2022-11-16T14:55:00.288Z,97904.07
2022-11-16T14:57:28.686Z,97904.39
2022-11-16T15:00:30.351Z,97905.63
2022-11-16T15:03:02.614Z,97903.34
2022-11-16T15:05:35.629Z,97903.58
2022-11-16T15:08:16.354Z,97900.66
2022-11-16T15:10:51.110Z,97900.96
2022-11-16T15:13:24.105Z,97897.98
2022-11-16T15:16:16.394Z,97898.52
2022-11-16T15:19:01.934Z,97890.68
2022-11-16T15:21:30.058Z,97891.65
2022-11-16T15:26:46.431Z,97890.83
2022-11-16T15:29:19.910Z,97894.02
2022-11-16T15:31:49.016Z,97896.64
2022-11-16T15:34:19.652Z,97900.92
2022-11-16T15:36:48.820Z,97901.81
2022-11-16T15:39:20.091Z,97890.96
2022-11-16T15:41:48.605Z,97892.33
2022-11-16T15:44:20.415Z,97889.33
2022-11-16T15:46:53.207Z,97887.05
2022-11-16T15:49:35.903Z,97888.29
2022-11-16T15:52:04.881Z,97887.39
2022-11-16T15:54:55.509Z,97883.23
2022-11-16T15:57:24.925Z,97884.96
2022-11-16T15:59:55.537Z,97885.63
2022-11-16T16:02:27.610Z,97883.98
2022-11-16T16:04:56.105Z,97881.19
2022-11-16T16:07:42.359Z,97879.39
2022-11-16T16:10:22.055Z,97880.98
2022-11-16T16:12:52.366Z,97880.25
2022-11-16T16:15:36.786Z,97880.64
2022-11-16T16:18:36.656Z,97878.89
2022-11-16T16:21:04.808Z,97880.80
2022-11-16T16:23:33.490Z,97887.46
2022-11-16T16:26:04.616Z,97887.43
2022-11-16T16:28:32.691Z,97882.69
2022-11-16T16:31:00.888Z,97882.08
2022-11-16T16:33:30.156Z,97882.24
2022-11-16T16:35:58.241Z,97880.27
2022-11-16T16:38:26.509Z,97877.33
2022-11-16T16:41:02.709Z,97879.20
2022-11-16T16:43:31.566Z,97882.54
2022-11-16T16:46:02.070Z,97882.77
2022-11-16T16:48:30.726Z,97879.83
2022-11-16T16:50:58.874Z,97879.54
2022-11-16T16:53:27.033Z,97879.06
2022-11-16T16:55:55.352Z,97882.73
2022-11-16T16:58:23.467Z,97884.46
2022-11-16T17:00:53.706Z,97887.23
2022-11-16T17:03:25.208Z,97886.09
2022-11-16T17:05:59.615Z,97886.45
2022-11-16T17:08:32.640Z,97886.02
2022-11-16T17:11:01.494Z,97887.48
2022-11-16T17:13:29.976Z,97886.11
2022-11-16T17:15:58.086Z,97886.55
2022-11-16T17:18:26.806Z,97887.14
2022-11-16T17:20:54.990Z,97887.39
2022-11-16T17:23:23.166Z,97884.29
2022-11-16T17:25:51.297Z,97889.19
2022-11-16T17:28:19.563Z,97889.48
2022-11-16T17:30:47.734Z,97888.45
2022-11-16T17:33:15.917Z,97891.60
2022-11-16T17:35:44.112Z,97893.08
2022-11-16T17:38:13.144Z,97895.23
2022-11-16T17:40:41.290Z,97892.61
2022-11-16T17:43:09.490Z,97889.62
2022-11-16T17:45:37.532Z,97887.05
2022-11-16T17:48:05.832Z,97884.80
2022-11-16T17:50:34.048Z,97887.07
2022-11-16T17:53:02.242Z,97891.48
2022-11-16T17:55:30.459Z,97895.20
2022-11-16T17:57:59.476Z,97895.49
2022-11-16T18:00:32.490Z,97892.00
2022-11-16T18:03:01.487Z,97891.92
2022-11-16T18:05:30.420Z,97893.38
2022-11-16T18:07:59.904Z,97896.24
2022-11-16T18:10:28.123Z,97898.45
2022-11-16T18:12:56.243Z,97897.69
2022-11-16T18:15:28.873Z,97899.40
2022-11-16T18:17:57.455Z,97902.39
2022-11-16T18:20:27.666Z,97904.12
2022-11-16T18:22:58.931Z,97909.54
2022-11-16T18:25:42.098Z,97908.93
2022-11-16T18:28:13.915Z,97907.60
2022-11-16T18:30:51.647Z,97909.05
2022-11-16T18:33:27.770Z,97906.73
2022-11-16T18:35:58.599Z,97908.22
2022-11-16T18:38:26.823Z,97908.98
2022-11-16T18:41:04.896Z,97906.61
2022-11-16T18:43:34.684Z,97904.73
2022-11-16T18:46:03.266Z,97905.58
2022-11-16T18:48:31.819Z,97905.88
2022-11-16T18:51:01.176Z,97904.92
2022-11-16T18:53:32.588Z,97907.59
2022-11-16T18:56:01.228Z,97915.77
2022-11-16T18:58:49.699Z,97921.31
2022-11-16T19:01:22.780Z,97921.64
2022-11-16T19:03:52.225Z,97918.48
2022-11-16T19:06:21.737Z,97918.13
2022-11-16T19:08:59.862Z,97916.48
2022-11-16T19:11:28.841Z,97917.73
2022-11-16T19:14:03.870Z,97918.06
2022-11-16T19:16:32.047Z,97915.88
2022-11-16T19:19:01.520Z,97913.70
2022-11-16T19:21:29.963Z,97916.44
2022-11-16T19:23:58.690Z,97920.34
2022-11-16T19:26:27.976Z,97919.70
2022-11-16T19:28:56.159Z,97919.05
2022-11-16T19:31:29.344Z,97922.09
2022-11-16T19:34:04.388Z,97919.97
2022-11-16T19:36:34.141Z,97915.44
2022-11-16T19:39:03.439Z,97918.40
2022-11-16T19:41:31.919Z,97919.65
2022-11-16T19:44:02.032Z,97917.28
2022-11-16T19:46:33.784Z,97914.39
2022-11-16T19:49:02.533Z,97916.36
2022-11-16T19:51:32.622Z,97914.79
2022-11-16T19:54:02.338Z,97914.46
2022-11-16T19:56:30.754Z,97917.45
2022-11-16T19:59:00.503Z,97919.89
2022-11-16T20:01:29.770Z,97922.06
2022-11-16T20:04:00.710Z,97919.96
2022-11-16T20:06:37.888Z,97921.34
2022-11-16T20:09:11.269Z,97925.23
2022-11-16T20:11:41.285Z,97925.71
2022-11-16T20:14:11.653Z,97924.13
2022-11-16T20:16:41.427Z,97925.94
2022-11-16T20:19:11.373Z,97931.35
2022-11-16T20:21:44.345Z,97933.69
2022-11-16T20:24:15.541Z,97933.38
2022-11-16T20:26:46.459Z,97933.91
2022-11-16T20:29:19.480Z,97931.45
2022-11-16T20:31:48.987Z,97932.98
2022-11-16T20:34:18.515Z,97931.73
2022-11-16T20:36:51.206Z,97935.65
2022-11-16T20:39:23.272Z,97932.44
2022-11-16T20:41:51.868Z,97929.88
2022-11-16T20:44:22.507Z,97930.83
2022-11-16T20:46:52.664Z,97935.77
2022-11-16T20:49:21.442Z,97937.08
2022-11-16T20:51:51.865Z,97939.54
2022-11-16T20:54:21.617Z,97941.30
2022-11-16T20:56:51.284Z,97942.14
2022-11-16T20:59:21.863Z,97942.38
2022-11-16T21:01:53.298Z,97942.45
2022-11-16T21:04:21.816Z,97940.09
2022-11-16T21:06:50.492Z,97936.67
2022-11-16T21:09:23.616Z,97941.56
2022-11-16T21:12:10.587Z,97942.43
2022-11-16T21:14:40.228Z,97935.26
2022-11-16T21:17:09.285Z,97931.70
2022-11-16T21:19:37.472Z,97931.46
2022-11-16T21:22:05.563Z,97927.70
2022-11-16T21:24:34.786Z,97924.71
2022-11-16T21:27:02.892Z,97921.17
2022-11-16T21:29:31.105Z,97918.16
2022-11-16T21:31:59.435Z,97914.78
2022-11-16T21:34:28.675Z,97916.31
2022-11-16T21:36:56.943Z,97914.86
2022-11-16T21:39:27.676Z,97911.05
2022-11-16T21:41:57.324Z,97911.64
2022-11-16T21:44:25.523Z,97909.92
2022-11-16T21:46:54.385Z,97909.23
2022-11-16T21:49:22.469Z,97910.09
2022-11-16T21:51:50.640Z,97912.73
2022-11-16T21:54:18.864Z,97912.52
2022-11-16T21:56:46.967Z,97916.87
2022-11-16T21:59:15.298Z,97916.73
2022-11-16T22:02:09.508Z,97916.75
2022-11-16T22:04:56.483Z,97915.39
2022-11-16T22:07:33.490Z,97914.51
2022-11-16T22:10:03.695Z,97913.29
2022-11-16T22:12:32.275Z,97912.95
2022-11-16T22:15:01.028Z,97914.50
2022-11-16T22:17:36.843Z,97916.09
2022-11-16T22:20:05.515Z,97913.41
2022-11-16T22:22:33.752Z,97911.42
2022-11-16T22:25:02.299Z,97916.64
2022-11-16T22:27:30.682Z,97920.91
2022-11-16T22:29:58.854Z,97925.30
2022-11-16T22:32:26.965Z,97926.55
2022-11-16T22:34:55.142Z,97927.06
2022-11-16T22:37:23.269Z,97929.39
2022-11-16T22:39:51.375Z,97929.13
2022-11-16T22:42:19.479Z,97924.80
2022-11-16T22:44:47.620Z,97923.40
2022-11-16T22:47:15.774Z,97921.33
2022-11-16T22:49:43.966Z,97923.06
2022-11-16T22:52:12.178Z,97924.02
2022-11-16T22:54:40.444Z,97923.16
2022-11-16T22:57:08.569Z,97919.15
2022-11-16T22:59:36.817Z,97916.48
2022-11-16T23:02:05.827Z,97920.24
2022-11-16T23:04:34.065Z,97919.46
2022-11-16T23:07:02.290Z,97919.89
2022-11-16T23:09:32.096Z,97916.64
2022-11-16T23:12:18.977Z,97914.07
2022-11-16T23:15:05.561Z,97914.86
2022-11-16T23:17:33.747Z,97909.54
2022-11-16T23:20:20.593Z,97910.98
2022-11-16T23:23:07.439Z,97913.64
2022-11-16T23:25:54.375Z,97914.19
2022-11-16T23:28:22.637Z,97909.84
2022-11-16T23:30:50.728Z,97909.98
2022-11-16T23:33:38.800Z,97906.48
2022-11-16T23:36:07.409Z,97906.89
2022-11-16T23:38:35.526Z,97904.34
2022-11-16T23:41:23.788Z,97905.23
2022-11-16T23:43:58.399Z,97908.21
2022-11-16T23:46:31.649Z,97912.00
2022-11-16T23:49:00.932Z,97905.23
2022-11-16T23:51:29.314Z,97902.23
2022-11-16T23:53:57.894Z,97898.84
2022-11-16T23:56:27.705Z,97897.31
2022-11-16T23:58:59.507Z,97899.38
